createdAt,value
2023-03-04T03:59:18.435Z,20.16
2023-03-04T04:00:18.364Z,20.15
2023-03-04T04:01:18.372Z,20.20
2023-03-04T04:02:18.505Z,20.12
2023-03-04T04:03:18.336Z,20.19
2023-03-04T04:04:18.333Z,20.18
2023-03-04T04:05:18.357Z,20.16
2023-03-04T04:06:18.319Z,20.16
2023-03-04T04:07:18.312Z,20.16
2023-03-04T04:08:18.314Z,20.29
2023-03-04T04:09:18.300Z,20.26
2023-03-04T04:10:18.300Z,20.26
2023-03-04T04:11:18.282Z,20.30
2023-03-04T04:12:18.282Z,20.35
2023-03-04T04:13:18.299Z,20.25
2023-03-04T04:14:18.280Z,20.22
2023-03-04T04:15:18.301Z,20.32
2023-03-04T04:16:18.292Z,20.34
2023-03-04T04:17:18.270Z,20.35
2023-03-04T04:18:18.253Z,20.40
2023-03-04T04:19:18.253Z,20.37
2023-03-04T04:20:18.260Z,20.32
2023-03-04T04:21:18.239Z,20.40
2023-03-04T04:22:18.265Z,20.42
2023-03-04T04:23:18.247Z,20.41
2023-03-04T04:24:18.223Z,20.35
2023-03-04T04:25:18.235Z,20.42
2023-03-04T04:26:18.229Z,20.51
2023-03-04T04:27:18.215Z,20.54
2023-03-04T04:28:18.210Z,20.49
2023-03-04T04:29:18.203Z,20.48
2023-03-04T04:30:18.200Z,20.51
2023-03-04T04:31:18.226Z,20.49
2023-03-04T04:32:18.266Z,20.57
2023-03-04T04:33:18.184Z,20.57
2023-03-04T04:34:18.172Z,20.58
2023-03-04T04:35:18.251Z,20.53
2023-03-04T04:36:18.185Z,20.58
2023-03-04T04:37:18.166Z,20.63
2023-03-04T04:38:18.174Z,20.64
2023-03-04T04:39:18.153Z,20.67
2023-03-04T04:40:18.159Z,20.64
2023-03-04T04:41:18.163Z,20.67
2023-03-04T04:42:18.156Z,20.68
2023-03-04T04:43:18.134Z,20.74
2023-03-04T04:44:18.142Z,20.66
2023-03-04T04:45:18.146Z,20.61
2023-03-04T04:46:18.283Z,20.72
2023-03-04T04:47:18.149Z,20.75
2023-03-04T04:48:18.113Z,20.68
2023-03-04T04:49:18.114Z,20.68
2023-03-04T04:50:18.135Z,20.68
2023-03-04T04:51:18.101Z,20.78
2023-03-04T04:52:18.105Z,20.82
2023-03-04T04:53:18.089Z,20.86
2023-03-04T04:54:18.103Z,20.79
2023-03-04T04:55:18.112Z,20.83
2023-03-04T04:56:18.100Z,20.76
2023-03-04T04:57:18.072Z,20.88
2023-03-04T04:58:18.084Z,20.82
2023-03-04T04:59:18.082Z,20.86
2023-03-04T05:00:18.078Z,20.67
2023-03-04T05:01:18.154Z,20.85
2023-03-04T05:02:18.047Z,20.76
2023-03-04T05:03:18.764Z,20.82
2023-03-04T05:04:18.081Z,20.76
2023-03-04T05:05:18.065Z,20.81
2023-03-04T05:06:18.049Z,20.88
2023-03-04T05:07:18.033Z,20.82
2023-03-04T05:08:18.054Z,20.88
2023-03-04T05:09:18.045Z,20.88
2023-03-04T05:10:18.044Z,20.94
2023-03-04T05:11:18.027Z,20.86
2023-03-04T05:12:18.019Z,20.93
2023-03-04T05:13:18.037Z,20.93
2023-03-04T05:14:18.027Z,20.91
2023-03-04T05:15:18.009Z,20.91
2023-03-04T05:16:18.073Z,20.90
2023-03-04T05:17:18.016Z,20.85
2023-03-04T05:18:18.005Z,20.90
2023-03-04T05:19:18.024Z,20.91
2023-03-04T05:20:17.994Z,20.86
2023-03-04T05:21:18.015Z,20.86
2023-03-04T05:22:17.983Z,20.88
2023-03-04T05:23:17.984Z,20.96
2023-03-04T05:24:17.990Z,20.97
2023-03-04T05:25:17.974Z,20.88
2023-03-04T05:26:17.991Z,20.90
2023-03-04T05:27:17.963Z,20.90
2023-03-04T05:28:17.971Z,20.90
2023-03-04T05:29:17.962Z,20.90
2023-03-04T05:30:17.956Z,20.88
2023-03-04T05:31:18.105Z,20.94
2023-03-04T05:32:18.016Z,20.90
2023-03-04T05:33:17.949Z,21.00
2023-03-04T05:34:17.930Z,20.96
2023-03-04T05:35:17.961Z,20.96
2023-03-04T05:36:17.924Z,21.01
2023-03-04T05:37:17.930Z,21.00
2023-03-04T05:38:17.941Z,20.93
2023-03-04T05:39:17.914Z,20.93
2023-03-04T05:40:17.941Z,20.98
2023-03-04T05:41:17.907Z,20.91
2023-03-04T05:42:17.913Z,21.01
2023-03-04T05:43:17.891Z,20.81
2023-03-04T05:44:17.936Z,20.98
2023-03-04T05:45:17.897Z,20.97
2023-03-04T05:46:17.940Z,20.86
2023-03-04T05:47:17.901Z,20.98
2023-03-04T05:48:17.868Z,21.01
2023-03-04T05:49:17.907Z,20.97
2023-03-04T05:50:17.872Z,20.96
2023-03-04T05:51:17.924Z,20.90
2023-03-04T05:52:17.866Z,20.91
2023-03-04T05:53:17.858Z,20.85
2023-03-04T05:54:17.850Z,21.01
2023-03-04T05:55:17.860Z,20.98
2023-03-04T05:56:17.868Z,20.93
2023-03-04T05:57:17.950Z,21.01
2023-03-04T05:58:17.832Z,20.98
2023-03-04T05:59:17.863Z,20.91
2023-03-04T06:00:17.852Z,21.00
2023-03-04T06:01:17.854Z,20.98
2023-03-04T06:02:17.856Z,20.98
2023-03-04T06:03:17.885Z,21.03
2023-03-04T06:04:17.804Z,20.98
2023-03-04T06:05:17.831Z,20.97
2023-03-04T06:06:17.823Z,20.96
2023-03-04T06:07:17.845Z,21.01
2023-03-04T06:08:17.798Z,21.06
2023-03-04T06:09:17.789Z,20.98
2023-03-04T06:10:17.781Z,20.98
2023-03-04T06:11:17.790Z,20.94
2023-03-04T06:12:17.791Z,21.01
2023-03-04T06:13:17.804Z,20.98
2023-03-04T06:14:17.802Z,20.93
2023-03-04T06:15:17.762Z,21.00
2023-03-04T06:16:17.889Z,20.90
2023-03-04T06:17:17.766Z,20.97
2023-03-04T06:18:17.799Z,20.97
2023-03-04T06:19:17.743Z,20.94
2023-03-04T06:20:17.742Z,21.04
2023-03-04T06:21:17.731Z,21.00
2023-03-04T06:22:17.730Z,20.94
2023-03-04T06:23:17.773Z,21.00
2023-03-04T06:24:17.748Z,20.96
2023-03-04T06:25:17.738Z,21.04
2023-03-04T06:26:17.725Z,20.98
2023-03-04T06:27:17.724Z,20.97
2023-03-04T06:28:17.739Z,20.97
2023-03-04T06:29:17.735Z,20.96
2023-03-04T06:30:17.704Z,21.01
2023-03-04T06:31:17.763Z,20.94
2023-03-04T06:32:17.738Z,21.01
2023-03-04T06:33:17.701Z,20.93
2023-03-04T06:34:17.678Z,21.03
2023-03-04T06:35:17.708Z,20.94
2023-03-04T06:36:17.711Z,20.91
2023-03-04T06:37:17.695Z,20.96
2023-03-04T06:38:17.685Z,20.96
2023-03-04T06:39:17.694Z,20.94
2023-03-04T06:40:17.663Z,20.97
2023-03-04T06:41:17.657Z,21.08
2023-03-04T06:42:17.679Z,20.94
2023-03-04T06:43:17.653Z,21.04
2023-03-04T06:44:17.653Z,21.01
2023-03-04T06:45:17.668Z,20.93
2023-03-04T06:46:17.660Z,20.98
2023-03-04T06:47:17.648Z,20.91
2023-03-04T06:48:17.624Z,20.96
2023-03-04T06:49:17.656Z,21.03
2023-03-04T06:50:17.626Z,21.04
2023-03-04T06:51:17.612Z,21.04
2023-03-04T06:52:17.606Z,21.01
2023-03-04T06:53:17.674Z,21.00
2023-03-04T06:54:17.640Z,21.00
2023-03-04T06:55:17.618Z,21.00
2023-03-04T06:56:17.587Z,20.93
2023-03-04T06:57:17.575Z,20.97
2023-03-04T06:58:17.581Z,20.97
2023-03-04T06:59:17.585Z,21.06
2023-03-04T07:00:17.577Z,21.09
2023-03-04T07:01:17.566Z,21.03
2023-03-04T07:02:17.566Z,21.03
2023-03-04T07:03:17.594Z,21.01
2023-03-04T07:04:17.581Z,21.04
2023-03-04T07:05:17.557Z,21.03
2023-03-04T07:06:17.558Z,21.01
2023-03-04T07:07:17.577Z,21.04
2023-03-04T07:08:17.541Z,21.03
2023-03-04T07:09:17.553Z,21.06
2023-03-04T07:10:17.638Z,21.03
2023-03-04T07:11:17.533Z,21.03
2023-03-04T07:12:17.516Z,20.98
2023-03-04T07:13:17.521Z,21.12
2023-03-04T07:14:17.532Z,21.03
2023-03-04T07:15:17.571Z,20.96
2023-03-04T07:16:17.605Z,21.01
2023-03-04T07:17:17.510Z,21.12
2023-03-04T07:18:17.505Z,21.00
2023-03-04T07:19:17.488Z,21.04
2023-03-04T07:20:17.831Z,21.03
2023-03-04T07:21:17.480Z,21.03
2023-03-04T07:22:17.497Z,20.96
2023-03-04T07:23:17.565Z,21.08
2023-03-04T07:24:17.487Z,21.03
2023-03-04T07:25:17.521Z,21.03
2023-03-04T07:26:17.465Z,21.06
2023-03-04T07:27:17.470Z,21.08
2023-03-04T07:28:17.468Z,21.09
2023-03-04T07:29:17.480Z,21.09
2023-03-04T07:30:17.454Z,21.09
2023-03-04T07:31:17.510Z,21.06
2023-03-04T07:32:17.585Z,21.08
2023-03-04T07:33:17.464Z,21.13
2023-03-04T07:34:17.463Z,21.11
2023-03-04T07:35:17.473Z,21.06
2023-03-04T07:36:17.429Z,21.06
2023-03-04T07:37:17.423Z,21.15
2023-03-04T07:38:17.453Z,21.18
2023-03-04T07:39:17.412Z,21.13
2023-03-04T07:40:17.449Z,21.18
2023-03-04T07:41:17.410Z,21.16
2023-03-04T07:42:17.404Z,21.11
2023-03-04T07:43:17.425Z,21.09
2023-03-04T07:44:17.415Z,21.12
2023-03-04T07:45:17.381Z,21.23
2023-03-04T07:46:17.431Z,21.21
2023-03-04T07:47:17.385Z,21.21
2023-03-04T07:48:17.374Z,21.22
2023-03-04T07:49:17.372Z,21.21
2023-03-04T07:50:18.111Z,21.21
2023-03-04T07:51:17.391Z,21.19
2023-03-04T07:52:17.376Z,21.22
2023-03-04T07:53:17.371Z,21.30
2023-03-04T07:54:17.353Z,21.30
2023-03-04T07:55:17.345Z,21.19
2023-03-04T07:56:17.356Z,21.22
2023-03-04T07:57:17.361Z,21.27
2023-03-04T07:58:17.334Z,21.21
2023-03-04T07:59:17.365Z,21.28
2023-03-04T08:00:17.336Z,21.27
2023-03-04T08:01:17.384Z,21.25
2023-03-04T08:02:17.330Z,21.30
2023-03-04T08:03:17.326Z,21.25
2023-03-04T08:04:17.384Z,21.31
2023-03-04T08:05:17.306Z,21.25
2023-03-04T08:06:17.310Z,21.27
2023-03-04T08:07:17.327Z,21.28
2023-03-04T08:08:17.509Z,21.30
2023-03-04T08:09:17.323Z,21.25
2023-03-04T08:10:17.289Z,21.25
2023-03-04T08:11:17.343Z,21.31
2023-03-04T08:12:17.294Z,21.31
2023-03-04T08:13:17.282Z,21.27
2023-03-04T08:14:17.282Z,21.31
2023-03-04T08:15:17.307Z,21.31
2023-03-04T08:16:17.339Z,21.33
2023-03-04T08:17:17.281Z,21.38
2023-03-04T08:18:17.263Z,21.36
2023-03-04T08:19:17.270Z,21.30
2023-03-04T08:20:17.245Z,21.37
2023-03-04T08:21:17.304Z,21.41
2023-03-04T08:22:17.245Z,21.41
2023-03-04T08:23:17.234Z,21.41
2023-03-04T08:24:17.236Z,21.41
2023-03-04T08:25:17.240Z,21.48
2023-03-04T08:26:17.228Z,21.41
2023-03-04T08:27:17.243Z,21.40
2023-03-04T08:28:17.229Z,21.43
2023-03-04T08:29:17.239Z,21.51
2023-03-04T08:30:17.216Z,21.43
2023-03-04T08:31:17.379Z,21.51
2023-03-04T08:32:17.376Z,21.46
2023-03-04T08:33:17.198Z,21.45
2023-03-04T08:34:17.209Z,21.45
2023-03-04T08:35:17.317Z,21.45
2023-03-04T08:36:17.193Z,21.46
2023-03-04T08:37:17.199Z,21.49
2023-03-04T08:38:17.205Z,21.48
2023-03-04T08:39:17.181Z,21.56
2023-03-04T08:40:17.201Z,21.55
2023-03-04T08:41:17.163Z,21.53
2023-03-04T08:42:17.204Z,21.55
2023-03-04T08:43:17.198Z,21.53
2023-03-04T08:44:17.183Z,21.56
2023-03-04T08:45:17.160Z,21.49
2023-03-04T08:46:17.217Z,21.61
2023-03-04T08:47:17.166Z,21.58
2023-03-04T08:48:17.144Z,21.61
2023-03-04T08:49:17.181Z,21.58
2023-03-04T08:50:17.133Z,21.61
2023-03-04T08:51:17.158Z,21.61
2023-03-04T08:52:17.131Z,21.68
2023-03-04T08:53:17.125Z,21.59
2023-03-04T08:54:17.135Z,21.59
2023-03-04T08:55:17.113Z,21.64
2023-03-04T08:56:17.134Z,21.62
2023-03-04T08:57:17.126Z,21.67
2023-03-04T08:58:17.124Z,21.68
2023-03-04T08:59:17.118Z,21.70
2023-03-04T09:00:17.099Z,21.62
2023-03-04T09:01:17.161Z,21.76
2023-03-04T09:02:17.113Z,21.77
2023-03-04T09:03:17.214Z,21.74
2023-03-04T09:04:17.087Z,21.83
2023-03-04T09:05:17.088Z,21.83
2023-03-04T09:06:17.087Z,21.83
2023-03-04T09:07:17.071Z,21.80
2023-03-04T09:08:17.131Z,21.86
2023-03-04T09:09:17.066Z,21.77
2023-03-04T09:10:17.062Z,21.82
2023-03-04T09:11:17.058Z,21.90
2023-03-04T09:12:17.061Z,21.86
2023-03-04T09:13:17.077Z,21.82
2023-03-04T09:14:17.041Z,21.90
2023-03-04T09:15:17.058Z,21.82
2023-03-04T09:16:17.111Z,21.92
2023-03-04T09:17:17.160Z,21.89
2023-03-04T09:18:17.061Z,21.93
2023-03-04T09:19:17.060Z,22.00
2023-03-04T09:20:17.026Z,22.15
2023-03-04T09:21:17.016Z,22.05
2023-03-04T09:22:17.042Z,22.14
2023-03-04T09:23:17.048Z,22.12
2023-03-04T09:24:17.018Z,22.14
2023-03-04T09:25:17.017Z,22.24
2023-03-04T09:26:17.011Z,22.23
2023-03-04T09:27:17.023Z,22.24
2023-03-04T09:28:17.033Z,22.27
2023-03-04T09:29:17.008Z,22.26
2023-03-04T09:30:17.022Z,22.30
2023-03-04T09:31:17.016Z,22.33
2023-03-04T09:32:17.034Z,22.34
2023-03-04T09:33:17.016Z,22.36
2023-03-04T09:34:16.983Z,22.34
2023-03-04T09:35:17.040Z,22.33
2023-03-04T09:36:17.002Z,22.33
2023-03-04T09:37:16.977Z,22.36
2023-03-04T09:38:17.017Z,22.31
2023-03-04T09:39:16.987Z,22.33
2023-03-04T09:40:16.966Z,22.33
2023-03-04T09:41:16.955Z,22.30
2023-03-04T09:42:16.959Z,22.30
2023-03-04T09:43:17.015Z,22.26
2023-03-04T09:44:16.971Z,22.33
2023-03-04T09:45:16.972Z,22.30
2023-03-04T09:46:16.971Z,22.24
2023-03-04T09:47:16.956Z,22.23
2023-03-04T09:48:16.948Z,22.27
2023-03-04T09:49:17.121Z,22.23
2023-03-04T09:50:16.938Z,22.22
2023-03-04T09:51:16.948Z,22.23
2023-03-04T09:52:16.944Z,22.33
2023-03-04T09:53:16.937Z,22.34
2023-03-04T09:54:16.948Z,22.38
2023-03-04T09:55:16.938Z,22.39
2023-03-04T09:56:16.933Z,22.41
2023-03-04T09:57:16.923Z,22.39
2023-03-04T09:58:16.935Z,22.42
2023-03-04T09:59:16.942Z,22.33
2023-03-04T10:00:16.932Z,22.39
2023-03-04T10:01:16.902Z,22.41
2023-03-04T10:02:16.903Z,22.41
2023-03-04T10:13:34.114Z,22.63
2023-03-04T10:14:34.092Z,22.59
2023-03-04T10:15:34.074Z,22.55
2023-03-04T10:16:34.090Z,22.61
2023-03-04T10:17:34.087Z,22.60
2023-03-04T10:18:34.073Z,22.61
2023-03-04T10:19:34.042Z,22.57
2023-03-04T10:20:34.050Z,22.59
2023-03-04T10:21:34.064Z,22.67
2023-03-04T10:22:34.084Z,22.63
2023-03-04T10:23:34.049Z,22.63
2023-03-04T10:24:34.033Z,22.66
2023-03-04T10:25:34.024Z,22.57
2023-03-04T10:26:34.060Z,22.59
2023-03-04T10:27:34.044Z,22.59
2023-03-04T10:28:34.017Z,22.66
2023-03-04T10:29:34.027Z,22.55
2023-03-04T10:30:34.010Z,22.60
2023-03-04T10:31:34.033Z,22.60
2023-03-04T10:32:34.045Z,22.66
2023-03-04T10:33:33.998Z,22.59
2023-03-04T10:34:33.996Z,22.61
2023-03-04T10:35:33.999Z,22.59
2023-03-04T10:36:34.005Z,22.60
2023-03-04T10:37:33.984Z,22.44
2023-03-04T10:38:33.996Z,22.46
2023-03-04T10:39:33.982Z,22.51
2023-03-04T10:40:33.964Z,22.46
2023-03-04T10:41:34.160Z,22.48
2023-03-04T10:42:34.102Z,22.55
2023-03-04T10:43:33.953Z,22.45
2023-03-04T10:44:33.964Z,22.52
2023-03-04T10:45:34.042Z,22.44
2023-03-04T10:46:33.973Z,22.48
2023-03-04T10:47:33.956Z,22.48
2023-03-04T10:48:33.963Z,22.48
2023-03-04T10:49:33.954Z,22.49
2023-03-04T10:50:33.936Z,22.48
2023-03-04T10:51:33.936Z,22.51
2023-03-04T10:52:33.934Z,22.45
2023-03-04T10:53:33.942Z,22.55
2023-03-04T10:54:33.928Z,22.49
2023-03-04T10:55:33.919Z,22.51
2023-03-04T10:56:33.915Z,22.46
2023-03-04T10:57:33.926Z,22.59
2023-03-04T10:58:33.926Z,22.48
2023-03-04T10:59:33.926Z,22.59
2023-03-04T11:00:33.931Z,22.59
2023-03-04T11:01:33.929Z,22.63
2023-03-04T11:02:33.908Z,22.64
2023-03-04T11:03:33.974Z,22.70
2023-03-04T11:04:33.931Z,22.81
2023-03-04T11:05:33.888Z,22.85
2023-03-04T11:06:33.876Z,22.78
2023-03-04T11:07:43.567Z,22.76
2023-03-04T11:08:33.877Z,22.84
2023-03-04T11:09:33.881Z,22.89
2023-03-04T11:10:33.892Z,22.86
2023-03-04T11:11:33.885Z,22.88
2023-03-04T11:12:33.904Z,22.85
2023-03-04T11:13:33.865Z,22.92
2023-03-04T11:14:33.868Z,22.88
2023-03-04T11:15:33.880Z,22.92
2023-03-04T11:16:33.914Z,22.94
2023-03-04T11:17:33.862Z,22.91
2023-03-04T11:18:33.849Z,23.01
2023-03-04T11:19:33.849Z,23.01
2023-03-04T11:20:33.862Z,23.07
2023-03-04T11:21:33.851Z,23.12
2023-03-04T11:22:33.866Z,23.06
2023-03-04T11:23:33.843Z,23.01
2023-03-04T11:24:33.834Z,23.03
2023-03-04T11:25:33.834Z,23.06
2023-03-04T11:26:33.839Z,23.03
2023-03-04T11:27:33.829Z,23.01
2023-03-04T11:28:33.828Z,23.03
2023-03-04T11:29:33.818Z,22.97
2023-03-04T11:30:33.817Z,22.97
2023-03-04T11:31:33.901Z,23.01
2023-03-04T11:32:33.869Z,22.96
2023-03-04T11:33:33.846Z,22.97
2023-03-04T11:34:33.826Z,22.94
2023-03-04T11:35:33.824Z,22.91
2023-03-04T11:36:33.811Z,22.92
2023-03-04T11:37:33.861Z,22.86
2023-03-04T11:38:33.812Z,22.91
2023-03-04T11:39:33.810Z,22.99
2023-03-04T11:40:33.824Z,22.92
2023-03-04T11:41:33.807Z,22.96
2023-03-04T11:42:34.397Z,22.99
2023-03-04T11:43:33.814Z,23.00
2023-03-04T11:44:33.806Z,23.01
2023-03-04T11:45:34.136Z,23.03
2023-03-04T11:46:33.812Z,23.01
2023-03-04T11:47:33.822Z,22.96
2023-03-04T11:48:33.806Z,22.91
2023-03-04T11:49:33.809Z,22.94
2023-03-04T11:50:33.824Z,22.86
2023-03-04T11:51:33.832Z,22.85
2023-03-04T11:52:33.819Z,22.79
2023-03-04T11:53:33.786Z,22.82
2023-03-04T11:54:33.835Z,22.78
2023-03-04T11:55:33.798Z,22.81
2023-03-04T11:56:33.783Z,22.81
2023-03-04T11:57:33.802Z,22.81
2023-03-04T11:58:33.782Z,22.69
2023-03-04T11:59:33.795Z,22.79
2023-03-04T12:00:33.775Z,22.79
2023-03-04T12:01:33.765Z,22.82
2023-03-04T12:02:33.762Z,22.91
2023-03-04T12:03:33.785Z,23.01
2023-03-04T12:04:33.856Z,23.06
2023-03-04T12:05:33.770Z,23.07
2023-03-04T12:09:32.265Z,23.12
2023-03-04T12:10:32.232Z,23.04
2023-03-04T12:11:32.227Z,23.22
2023-03-04T12:12:32.243Z,23.41
2023-03-04T12:13:32.232Z,23.42
2023-03-04T12:14:32.272Z,23.53
2023-03-04T12:15:32.307Z,23.62
2023-03-04T12:16:32.244Z,23.70
2023-03-04T12:17:32.231Z,23.71
2023-03-04T12:18:32.219Z,23.70
2023-03-04T12:19:34.922Z,23.70
2023-03-04T12:20:32.224Z,23.66
2023-03-04T12:21:32.258Z,23.75
2023-03-04T12:22:32.219Z,23.70
2023-03-04T12:23:32.212Z,23.70
2023-03-04T12:24:32.249Z,23.70
2023-03-04T12:25:32.205Z,23.67
2023-03-04T12:26:32.216Z,23.72
2023-03-04T12:27:32.220Z,23.70
2023-03-04T12:28:32.207Z,23.66
2023-03-04T12:29:32.217Z,23.67
2023-03-04T12:30:32.192Z,23.66
2023-03-04T12:31:32.296Z,23.71
2023-03-04T12:32:32.361Z,23.66
2023-03-04T12:33:32.270Z,23.71
2023-03-04T12:34:32.220Z,23.84
2023-03-04T12:35:32.216Z,23.82
2023-03-04T12:36:32.190Z,23.93
2023-03-04T12:37:34.512Z,24.08
2023-03-04T12:38:32.191Z,24.09
2023-03-04T12:39:32.202Z,24.00
2023-03-04T12:40:32.202Z,23.97
2023-03-04T12:41:32.171Z,24.03
2023-03-04T12:42:32.179Z,23.96
2023-03-04T12:43:34.406Z,23.84
2023-03-04T12:44:32.169Z,23.82
2023-03-04T12:45:32.178Z,23.77
2023-03-04T12:46:32.225Z,23.70
2023-03-04T12:47:32.168Z,23.66
2023-03-04T12:48:32.201Z,23.64
2023-03-04T12:49:34.545Z,23.62
2023-03-04T12:50:32.188Z,23.53
2023-03-04T12:51:32.167Z,23.57
2023-03-04T12:52:32.184Z,23.47
2023-03-04T12:53:32.204Z,23.45
2023-03-04T12:54:32.187Z,23.45
2023-03-04T12:55:32.204Z,23.47
2023-03-04T12:56:32.145Z,23.41
2023-03-04T12:57:32.151Z,23.40
2023-03-04T12:58:32.161Z,23.38
2023-03-04T12:59:32.175Z,23.26
2023-03-04T13:00:32.141Z,23.28
2023-03-04T13:01:32.165Z,23.26
2023-03-04T13:02:32.302Z,23.28
2023-03-04T13:03:32.236Z,23.25
2023-03-04T13:04:32.163Z,23.28
2023-03-04T13:05:32.182Z,23.25
2023-03-04T13:06:32.122Z,23.26
2023-03-04T13:07:32.128Z,23.18
2023-03-04T13:08:32.129Z,23.19
2023-03-04T13:09:32.175Z,23.04
2023-03-04T13:10:32.141Z,23.14
2023-03-04T13:11:32.118Z,23.07
2023-03-04T13:12:32.146Z,23.04
2023-03-04T13:13:32.210Z,23.09
2023-03-04T13:14:32.126Z,23.10
2023-03-04T13:15:32.162Z,23.07
2023-03-04T13:16:32.134Z,23.10
2023-03-04T13:17:32.101Z,23.03
2023-03-04T13:18:32.097Z,22.97
2023-03-04T13:19:32.108Z,22.99
2023-03-04T13:20:32.095Z,22.96
2023-03-04T13:21:32.109Z,22.92
2023-03-04T13:22:32.091Z,22.94
2023-03-04T13:23:32.088Z,23.06
2023-03-04T13:24:32.096Z,23.06
2023-03-04T13:25:32.140Z,23.07
2023-03-04T13:26:32.090Z,23.12
2023-03-04T13:27:32.122Z,23.09
2023-03-04T13:28:32.105Z,23.06
2023-03-04T13:29:32.068Z,23.07
2023-03-04T13:30:32.091Z,23.09
2023-03-04T13:31:32.084Z,23.14
2023-03-04T13:32:32.134Z,23.06
2023-03-04T13:33:32.086Z,23.04
2023-03-04T13:34:32.063Z,23.01
2023-03-04T13:35:32.151Z,23.09
2023-03-04T13:36:32.058Z,23.09
2023-03-04T13:37:32.068Z,23.04
2023-03-04T13:38:32.060Z,23.00
2023-03-04T13:39:32.069Z,22.91
2023-03-04T13:40:32.056Z,22.97
2023-03-04T13:41:32.057Z,22.92
2023-03-04T13:42:32.040Z,22.99
2023-03-04T13:43:32.040Z,22.94
2023-03-04T13:44:32.026Z,22.92
2023-03-04T13:45:32.076Z,22.85
2023-03-04T13:46:32.027Z,22.94
2023-03-04T13:47:32.021Z,22.84
2023-03-04T13:48:32.043Z,22.86
2023-03-04T13:49:32.039Z,22.76
2023-03-04T13:50:32.071Z,22.82
2023-03-04T13:51:32.006Z,22.84
2023-03-04T13:52:32.028Z,22.66
2023-03-04T13:53:32.002Z,22.71
2023-03-04T13:54:32.049Z,22.70
2023-03-04T13:55:32.027Z,22.73
2023-03-04T13:56:32.001Z,22.69
2023-03-04T13:57:32.029Z,22.59
2023-03-04T13:58:32.005Z,22.57
2023-03-04T13:59:32.007Z,22.66
2023-03-04T14:00:32.031Z,22.64
2023-03-04T14:01:31.996Z,22.61
2023-03-04T14:02:31.980Z,22.57
2023-03-04T14:03:32.024Z,22.60
2023-03-04T14:04:31.973Z,22.60
2023-03-04T14:05:32.002Z,22.60
2023-03-04T14:06:31.990Z,22.73
2023-03-04T14:07:31.982Z,22.75
2023-03-04T14:08:31.997Z,22.73
2023-03-04T14:09:31.956Z,22.85
2023-03-04T14:10:32.062Z,22.84
2023-03-04T14:13:05.036Z,22.85
2023-03-04T14:14:05.026Z,22.81
2023-03-04T14:15:05.011Z,22.82
2023-03-04T14:16:05.105Z,22.78
2023-03-04T14:17:05.058Z,22.85
2023-03-04T14:18:05.009Z,22.86
2023-03-04T14:19:05.033Z,22.88
2023-03-04T14:20:05.000Z,22.79
2023-03-04T14:21:05.008Z,22.81
2023-03-04T14:22:05.017Z,22.86
2023-03-04T14:23:04.994Z,22.82
2023-03-04T14:24:05.005Z,22.85
2023-03-04T14:25:04.987Z,22.84
2023-03-04T14:26:04.988Z,22.84
2023-03-04T14:27:04.987Z,22.84
2023-03-04T14:28:05.008Z,22.70
2023-03-04T14:29:05.020Z,22.73
2023-03-04T14:30:04.980Z,22.70
2023-03-04T14:31:04.974Z,22.64
2023-03-04T14:32:05.135Z,22.67
2023-03-04T14:33:04.979Z,22.63
2023-03-04T14:34:04.979Z,22.61
2023-03-04T14:35:04.956Z,22.57
2023-03-04T14:36:04.964Z,22.55
2023-03-04T14:37:04.981Z,22.49
2023-03-04T14:38:04.963Z,22.52
2023-03-04T14:39:04.977Z,22.48
2023-03-04T14:40:04.967Z,22.60
2023-03-04T14:41:04.982Z,22.46
2023-03-04T14:42:04.938Z,22.51
2023-03-04T14:43:04.946Z,22.45
2023-03-04T14:44:04.941Z,22.48
2023-03-04T14:45:04.946Z,22.45
2023-03-04T14:46:04.984Z,22.60
2023-03-04T14:47:08.202Z,22.63
2023-03-04T14:48:04.939Z,22.71
2023-03-04T14:49:04.939Z,22.86
2023-03-04T14:50:04.952Z,23.14
2023-03-04T14:51:04.923Z,23.29
2023-03-04T14:52:04.940Z,23.35
2023-03-04T14:53:04.944Z,23.40
2023-03-04T14:54:04.915Z,23.45
2023-03-04T14:55:04.949Z,23.40
2023-03-04T14:56:04.910Z,23.40
2023-03-04T14:57:04.898Z,23.40
2023-03-04T14:58:04.902Z,23.37
2023-03-04T14:59:04.900Z,23.26
2023-03-04T15:00:04.898Z,23.22
2023-03-04T15:01:05.022Z,23.22
2023-03-04T15:02:04.910Z,23.14
2023-03-04T15:03:04.897Z,23.09
2023-03-04T15:04:04.984Z,23.07
2023-03-04T15:05:11.747Z,23.12
2023-03-04T15:06:04.929Z,23.03
2023-03-04T15:07:04.875Z,23.01
2023-03-04T15:08:04.878Z,22.99
2023-03-04T15:09:04.875Z,22.91
2023-03-04T15:10:04.870Z,22.89
2023-03-04T15:11:04.900Z,22.82
2023-03-04T15:12:04.879Z,22.78
2023-03-04T15:13:04.883Z,22.75
2023-03-04T15:14:04.897Z,22.78
2023-03-04T15:15:04.877Z,22.67
2023-03-04T15:16:04.943Z,22.75
2023-03-04T15:17:04.984Z,22.69
2023-03-04T15:18:04.850Z,22.59
2023-03-04T15:19:04.851Z,22.63
2023-03-04T15:20:04.843Z,22.63
2023-03-04T15:21:04.877Z,22.61
2023-03-04T15:22:04.963Z,22.59
2023-03-04T15:23:04.852Z,22.63
2023-03-04T15:24:04.856Z,22.61
2023-03-04T15:25:04.874Z,22.61
2023-03-04T15:26:04.836Z,22.59
2023-03-04T15:27:04.829Z,22.64
2023-03-04T15:28:04.825Z,22.55
2023-03-04T15:29:04.827Z,22.64
2023-03-04T15:30:04.821Z,22.57
2023-03-04T15:31:04.922Z,22.61
2023-03-04T15:32:04.838Z,22.57
2023-03-04T15:33:04.836Z,22.48
2023-03-04T15:34:04.822Z,22.57
2023-03-04T15:35:04.812Z,22.52
2023-03-04T15:36:04.821Z,22.48
2023-03-04T15:37:04.783Z,22.42
2023-03-04T15:38:04.798Z,22.46
2023-03-04T15:39:04.796Z,22.46
2023-03-04T15:40:04.783Z,22.44
2023-03-04T15:41:04.772Z,22.42
2023-03-04T15:42:04.783Z,22.42
2023-03-04T15:43:04.789Z,22.34
2023-03-04T15:44:04.810Z,22.39
2023-03-04T15:45:04.797Z,22.42
2023-03-04T15:46:04.805Z,22.38
2023-03-04T15:47:04.754Z,22.33
2023-03-04T15:48:04.772Z,22.39
2023-03-04T15:49:04.758Z,22.34
2023-03-04T15:50:04.762Z,22.36
2023-03-04T15:51:04.744Z,22.31
2023-03-04T15:52:04.742Z,22.23
2023-03-04T15:53:04.827Z,22.29
2023-03-04T15:54:04.783Z,22.27
2023-03-04T15:55:04.743Z,22.27
2023-03-04T15:56:04.725Z,22.23
2023-03-04T15:57:04.713Z,22.38
2023-03-04T15:58:04.724Z,22.27
2023-03-04T15:59:04.752Z,22.20
2023-03-04T16:00:04.723Z,22.23
2023-03-04T16:01:04.763Z,22.22
2023-03-04T16:12:44.093Z,21.96
2023-03-04T16:13:44.031Z,21.93
2023-03-04T16:14:44.034Z,21.92
2023-03-04T16:15:44.045Z,21.85
2023-03-04T16:16:44.053Z,21.80
2023-03-04T16:17:44.048Z,21.83
2023-03-04T16:18:44.037Z,21.82
2023-03-04T16:19:44.018Z,21.82
2023-03-04T16:20:44.013Z,21.78
2023-03-04T16:21:43.984Z,21.74
2023-03-04T16:22:43.991Z,21.71
2023-03-04T16:23:44.007Z,21.70
2023-03-04T16:24:43.986Z,21.67
2023-03-04T16:25:43.972Z,21.66
2023-03-04T16:26:43.965Z,21.68
2023-03-04T16:27:43.962Z,21.66
2023-03-04T16:28:43.988Z,21.67
2023-03-04T16:29:43.953Z,21.58
2023-03-04T16:30:44.158Z,21.66
2023-03-04T16:31:43.954Z,21.58
2023-03-04T16:32:43.951Z,21.59
2023-03-04T16:33:43.953Z,21.58
2023-03-04T16:34:43.936Z,21.55
2023-03-04T16:35:44.094Z,21.51
2023-03-04T16:36:44.047Z,21.53
2023-03-04T16:37:43.930Z,21.55
2023-03-04T16:38:43.940Z,21.52
2023-03-04T16:39:43.939Z,21.48
2023-03-04T16:40:43.916Z,21.53
2023-03-04T16:41:43.904Z,21.45
2023-03-04T16:42:43.921Z,21.48
2023-03-04T16:43:43.941Z,21.49
2023-03-04T16:44:43.913Z,21.53
2023-03-04T16:45:43.892Z,21.40
2023-03-04T16:46:43.919Z,21.40
2023-03-04T16:47:43.885Z,21.43
2023-03-04T16:48:43.899Z,21.38
2023-03-04T16:49:43.874Z,21.34
2023-03-04T16:50:43.883Z,21.40
2023-03-04T16:51:43.863Z,21.41
2023-03-04T16:52:43.873Z,21.40
2023-03-04T16:53:43.883Z,21.36
2023-03-04T16:54:43.857Z,21.41
2023-03-04T16:55:43.865Z,21.38
2023-03-04T16:56:43.849Z,21.37
2023-03-04T16:57:43.853Z,21.31
2023-03-04T16:58:43.859Z,21.36
2023-03-04T16:59:43.853Z,21.34
2023-03-04T17:00:43.842Z,21.31
2023-03-04T17:01:43.951Z,21.25
2023-03-04T17:02:43.889Z,21.33
2023-03-04T17:03:43.849Z,21.25
2023-03-04T17:04:43.817Z,21.27
2023-03-04T17:05:43.816Z,21.22
2023-03-04T17:06:43.810Z,21.21
2023-03-04T17:07:43.815Z,21.25
2023-03-04T17:08:43.801Z,21.23
2023-03-04T17:09:43.786Z,21.27
2023-03-04T17:10:43.799Z,21.23
2023-03-04T17:11:43.818Z,21.19
2023-03-04T17:12:43.787Z,21.21
2023-03-04T17:13:43.796Z,21.23
2023-03-04T17:14:43.773Z,21.22
2023-03-04T17:15:43.803Z,21.21
2023-03-04T17:16:43.788Z,21.22